Time;durP1;ratioP1;P1;durP2;ratioP2;P2;SDS_P1;SDS_P2;PMS_P1;PMS_P2;Temp;Humidity;BMP_temperature;BMP_pressure;BME280_temperature;BME280_humidity;BME280_pressure;Samples;Min_cycle;Max_cycle;Signal;HPM_P1;HPM_P2
2021/04/16 00:00:32;;;;;;;8.77;7.28;;;-2.10;95.70;;;;;;5012601;28;20049;-76
2021/04/16 00:02:59;;;;;;;8.07;7.15;;;-2.10;95.80;;;;;;4993541;28;20050;-76
2021/04/16 00:05:27;;;;;;;8.02;7.32;;;-2.10;95.90;;;;;;4999587;28;20141;-76
2021/04/16 00:07:55;;;;;;;7.53;6.82;;;-2.00;95.70;;;;;;5011687;28;20042;-76
2021/04/16 00:10:30;;;;;;;8.65;7.85;;;-2.00;95.20;;;;;;5012063;28;20042;-76
2021/04/16 00:12:59;;;;;;;17.23;7.88;;;-2.10;95.20;;;;;;5010588;28;20038;-76
2021/04/16 00:15:29;;;;;;;8.30;7.43;;;-2.20;95.10;;;;;;4995041;28;20431;-76
2021/04/16 00:17:57;;;;;;;9.30;8.18;;;-2.40;95.60;;;;;;5011704;28;20046;-76
2021/04/16 00:20:26;;;;;;;9.48;7.97;;;-2.40;96.10;;;;;;5010884;28;20042;-76
2021/04/16 00:22:53;;;;;;;7.18;6.32;;;-2.40;96.10;;;;;;5012941;28;20046;-76
2021/04/16 00:25:24;;;;;;;10.13;7.03;;;-2.50;96.10;;;;;;5012879;28;20049;-76
2021/04/16 00:27:52;;;;;;;7.72;6.95;;;-2.50;96.20;;;;;;5012309;28;20046;-76
2021/04/16 00:30:27;;;;;;;9.18;8.35;;;-2.50;96.40;;;;;;5011464;28;20042;-76
2021/04/16 00:32:55;;;;;;;10.48;8.10;;;-2.40;97.20;;;;;;5012211;28;20053;-76
2021/04/16 00:35:22;;;;;;;7.90;7.00;;;-2.40;97.20;;;;;;5012353;28;20030;-76
2021/04/16 00:37:49;;;;;;;6.78;5.88;;;-2.40;97.20;;;;;;5012594;28;20046;-76
2021/04/16 00:40:25;;;;;;;6.80;6.28;;;-2.40;97.60;;;;;;5008000;28;20046;-76
2021/04/16 00:42:59;;;;;;;10.00;7.30;;;-2.40;97.70;;;;;;4992843;28;20393;-76
2021/04/16 00:45:29;;;;;;;7.82;7.00;;;-2.40;97.70;;;;;;4992921;28;20061;-76
2021/04/16 00:47:58;;;;;;;8.30;7.53;;;-2.40;97.50;;;;;;4992723;28;20519;-76
2021/04/16 00:50:43;;;;;;;12.82;6.18;;;-2.30;97.20;;;;;;4992812;28;20050;-76
2021/04/16 00:53:13;;;;;;;8.90;6.90;;;-2.30;96.50;;;;;;4992321;28;20043;-76
2021/04/16 00:55:40;;;;;;;8.00;7.20;;;-2.30;96.60;;;;;;5012358;28;20042;-76
2021/04/16 00:58:07;;;;;;;7.63;6.82;;;-2.40;96.40;;;;;;4996717;28;20057;-76
2021/04/16 01:00:37;;;;;;;6.80;6.07;;;-2.40;96.80;;;;;;4991961;28;20043;-76
2021/04/16 01:03:05;;;;;;;8.18;7.38;;;-2.50;96.80;;;;;;4992032;28;20043;-76
2021/04/16 01:05:33;;;;;;;8.65;7.80;;;-2.40;97.10;;;;;;4992966;28;20050;-76
2021/04/16 01:08:01;;;;;;;9.05;8.25;;;-2.50;97.30;;;;;;4991353;28;20419;-76
2021/04/16 01:10:28;;;;;;;8.60;7.32;;;-2.50;97.50;;;;;;5011263;28;20052;-76
2021/04/16 01:12:56;;;;;;;7.30;6.55;;;-2.50;97.90;;;;;;5011485;28;20050;-76
2021/04/16 01:15:32;;;;;;;8.13;7.32;;;-2.50;97.90;;;;;;5011261;28;20072;-76
2021/04/16 01:18:05;;;;;;;7.15;6.10;;;-2.50;98.10;;;;;;5011985;28;20061;-76
2021/04/16 01:20:37;;;;;;;7.75;6.50;;;-2.60;98.00;;;;;;5011429;28;20518;-76
2021/04/16 01:23:12;;;;;;;;;;;-2.60;98.10;;;;;;5012219;28;20046;-76
2021/04/16 01:25:41;;;;;;;9.00;8.10;;;-2.60;98.10;;;;;;5012054;28;19976;-76
2021/04/16 01:28:09;;;;;;;8.93;8.02;;;-2.60;98.00;;;;;;5011519;28;20768;-76
2021/04/16 01:30:56;;;;;;;8.55;7.13;;;-2.60;98.20;;;;;;5011454;28;20046;-76
2021/04/16 01:33:25;;;;;;;7.50;5.95;;;-2.70;98.10;;;;;;5011822;28;20041;-76
2021/04/16 01:35:53;;;;;;;9.10;8.20;;;-2.70;98.00;;;;;;5011431;28;20050;-75
2021/04/16 01:38:21;;;;;;;9.82;7.82;;;-2.80;98.50;;;;;;5011477;28;20050;-76
2021/04/16 01:40:49;;;;;;;9.40;7.95;;;-2.50;98.40;;;;;;5011266;28;20395;-76
2021/04/16 01:43:28;;;;;;;11.82;8.07;;;-2.60;98.20;;;;;;5011111;28;20050;-76
2021/04/16 01:46:14;;;;;;;10.25;9.15;;;-2.50;98.00;;;;;;5011564;28;20046;-75
2021/04/16 01:48:43;;;;;;;8.48;7.63;;;-2.50;97.80;;;;;;5010970;28;20052;-76
2021/04/16 01:51:15;;;;;;;9.02;7.60;;;-2.30;97.80;;;;;;5010947;28;20038;-76
2021/04/16 01:53:42;;;;;;;10.75;8.90;;;-2.30;97.90;;;;;;5011556;28;20062;-76
2021/04/16 01:56:10;;;;;;;10.57;7.90;;;-2.40;98.10;;;;;;5011269;28;20046;-76
2021/04/16 01:58:37;;;;;;;10.55;9.20;;;-2.40;97.70;;;;;;5010905;28;20050;-76
2021/04/16 02:01:06;;;;;;;8.15;7.45;;;-2.40;97.50;;;;;;5011309;28;20050;-75
2021/04/16 02:03:34;;;;;;;8.52;7.53;;;-2.50;97.60;;;;;;5009712;28;20053;-75
2021/04/16 02:06:02;;;;;;;10.32;7.88;;;-2.50;97.70;;;;;;5011422;28;20060;-76
2021/04/16 02:08:29;;;;;;;10.00;8.15;;;-2.60;97.70;;;;;;5010826;28;20046;-75
2021/04/16 02:10:57;;;;;;;11.27;7.90;;;-2.60;97.80;;;;;;5010880;28;20049;-75
2021/04/16 02:13:24;;;;;;;9.15;8.25;;;-2.70;97.90;;;;;;5009978;28;20403;-76
2021/04/16 02:15:51;;;;;;;7.93;7.22;;;-2.70;98.00;;;;;;5010669;28;20046;-75
2021/04/16 02:18:19;;;;;;;11.32;8.98;;;-2.70;98.00;;;;;;5010958;28;20049;-76
2021/04/16 02:20:47;;;;;;;10.23;8.95;;;-2.70;98.00;;;;;;4991934;28;20046;-76
2021/04/16 02:23:14;;;;;;;8.90;8.25;;;-2.80;98.20;;;;;;4991254;28;20045;-76
2021/04/16 02:25:41;;;;;;;7.95;7.32;;;-2.80;98.30;;;;;;4991567;28;20050;-75
2021/04/16 02:28:09;;;;;;;8.48;7.45;;;-2.90;98.40;;;;;;5005678;28;20046;-76
2021/04/16 02:30:37;;;;;;;7.40;6.53;;;-2.90;98.70;;;;;;4990657;28;20051;-75
2021/04/16 02:33:04;;;;;;;8.90;7.00;;;-2.90;98.90;;;;;;4991146;28;20141;-75
2021/04/16 02:35:32;;;;;;;10.05;8.60;;;-3.00;99.00;;;;;;5000959;28;20061;-75
2021/04/16 02:38:00;;;;;;;11.57;8.10;;;-2.90;99.00;;;;;;5010925;28;20545;-75
2021/04/16 02:40:27;;;;;;;8.55;7.55;;;-2.90;99.00;;;;;;5010517;28;20034;-75
2021/04/16 02:42:55;;;;;;;9.18;7.32;;;-2.90;99.10;;;;;;5009984;28;20049;-75
2021/04/16 02:45:25;;;;;;;11.60;8.07;;;-2.90;99.20;;;;;;5010790;28;20053;-75
2021/04/16 02:47:53;;;;;;;16.15;9.30;;;-2.90;99.00;;;;;;5010281;28;20414;-75
2021/04/16 02:50:25;;;;;;;8.35;7.55;;;-2.90;99.00;;;;;;5009468;28;20077;-75
2021/04/16 02:52:52;;;;;;;8.30;6.60;;;-3.00;99.20;;;;;;5010460;28;20050;-75
2021/04/16 02:55:19;;;;;;;12.68;7.93;;;-3.00;99.00;;;;;;5010097;28;20045;-75
2021/04/16 02:57:46;;;;;;;12.15;7.65;;;-3.00;99.30;;;;;;4998006;28;20057;-75
2021/04/16 03:00:18;;;;;;;10.63;9.05;;;-3.10;99.40;;;;;;4990380;28;20049;-75
2021/04/16 03:02:45;;;;;;;12.25;8.55;;;-3.10;99.70;;;;;;4990310;28;20061;-76
2021/04/16 03:05:13;;;;;;;10.27;8.93;;;-3.10;99.80;;;;;;4991298;28;20073;-75
2021/04/16 03:07:40;;;;;;;9.30;8.30;;;-3.10;99.90;;;;;;4990636;28;20062;-75
2021/04/16 03:10:11;;;;;;;11.65;9.07;;;-3.10;99.90;;;;;;4999740;28;20057;-75
2021/04/16 03:12:38;;;;;;;13.98;9.15;;;-3.00;99.90;;;;;;5010077;28;20049;-75
2021/04/16 03:15:06;;;;;;;12.60;8.13;;;-3.00;99.90;;;;;;5009717;28;20044;-75
2021/04/16 03:17:34;;;;;;;11.13;8.10;;;-3.10;99.30;;;;;;5010303;28;20053;-75
2021/04/16 03:20:04;;;;;;;11.77;8.27;;;-3.10;99.30;;;;;;5010137;28;20049;-75
2021/04/16 03:22:31;;;;;;;8.88;7.95;;;-3.10;99.50;;;;;;5010319;28;20597;-75
2021/04/16 03:24:59;;;;;;;11.20;9.02;;;-3.20;99.60;;;;;;5008519;28;20056;-75
2021/04/16 03:27:26;;;;;;;9.50;7.53;;;-3.10;99.90;;;;;;5008723;28;20399;-75
2021/04/16 03:29:53;;;;;;;10.30;8.20;;;-3.10;99.80;;;;;;5009902;28;20042;-75
2021/04/16 03:32:21;;;;;;;8.27;7.07;;;-3.10;99.80;;;;;;5004013;28;20057;-75
2021/04/16 03:34:48;;;;;;;9.63;7.75;;;-3.10;99.70;;;;;;4996886;28;20057;-75
2021/04/16 03:37:17;;;;;;;9.77;7.40;;;-3.10;99.50;;;;;;5012979;28;20054;-75
2021/04/16 03:39:44;;;;;;;12.65;7.15;;;-3.20;99.60;;;;;;5013488;28;20401;-75
2021/04/16 03:42:12;;;;;;;11.00;8.38;;;-3.20;99.80;;;;;;5014135;28;20076;-75
2021/04/16 03:44:40;;;;;;;11.60;9.35;;;-3.20;99.80;;;;;;5011843;28;20050;-75
2021/04/16 03:47:07;;;;;;;8.32;7.57;;;-3.20;99.90;;;;;;5013140;28;20495;-76
2021/04/16 03:49:35;;;;;;;10.82;9.20;;;-3.30;99.90;;;;;;5012559;28;20061;-76
2021/04/16 03:52:04;;;;;;;12.40;9.88;;;-3.30;99.90;;;;;;5013256;28;20044;-76
2021/04/16 03:54:33;;;;;;;8.95;7.07;;;-3.30;99.90;;;;;;5012094;28;20077;-76
2021/04/16 03:57:02;;;;;;;11.82;8.57;;;-3.40;99.90;;;;;;5012556;28;20060;-75
2021/04/16 03:59:29;;;;;;;8.65;7.43;;;-3.40;99.90;;;;;;5012956;28;20050;-75
2021/04/16 04:01:56;;;;;;;12.20;8.38;;;-3.40;99.90;;;;;;5012699;28;20060;-75
2021/04/16 04:04:24;;;;;;;11.45;8.27;;;-3.40;99.90;;;;;;5013163;28;20542;-75
2021/04/16 04:06:51;;;;;;;11.13;9.35;;;-3.40;99.90;;;;;;5011949;28;20049;-75
2021/04/16 04:09:20;;;;;;;8.55;7.55;;;-3.40;99.90;;;;;;5013584;28;20069;-75
2021/04/16 04:11:51;;;;;;;11.20;8.43;;;-3.40;99.90;;;;;;5011324;28;20053;-75
2021/04/16 04:14:20;;;;;;;11.07;8.02;;;-3.50;99.90;;;;;;5011844;28;20046;-75
2021/04/16 04:16:53;;;;;;;12.07;8.10;;;-3.50;99.90;;;;;;5011150;28;20065;-75
2021/04/16 04:19:23;;;;;;;11.45;8.95;;;-3.60;99.90;;;;;;5006063;28;20049;-75
2021/04/16 04:21:52;;;;;;;9.00;8.07;;;-3.60;99.90;;;;;;4993591;28;20081;-75
2021/04/16 04:24:20;;;;;;;10.65;8.43;;;-3.60;99.90;;;;;;4993198;28;20038;-75
2021/04/16 04:26:48;;;;;;;10.88;8.23;;;-3.50;99.90;;;;;;4993129;28;20057;-75
2021/04/16 04:29:18;;;;;;;8.57;7.68;;;-3.50;99.90;;;;;;4992925;28;20057;-75
2021/04/16 04:31:48;;;;;;;12.48;9.80;;;-3.40;99.90;;;;;;5007071;28;20510;-75
2021/04/16 04:34:26;;;;;;;10.07;7.67;;;-3.30;99.90;;;;;;4992248;28;20427;-75
2021/04/16 04:36:56;;;;;;;8.50;6.97;;;-3.30;99.90;;;;;;4993089;28;20289;-75
2021/04/16 04:39:26;;;;;;;10.60;7.00;;;-3.20;99.90;;;;;;4995623;28;20549;-75
2021/04/16 04:41:54;;;;;;;9.52;8.18;;;-3.20;99.90;;;;;;5012712;28;20061;-75
2021/04/16 04:44:22;;;;;;;12.05;8.05;;;-3.20;99.80;;;;;;5012201;28;20061;-75
2021/04/16 04:46:49;;;;;;;8.80;6.93;;;-3.20;99.90;;;;;;5010656;28;20049;-75
2021/04/16 04:49:19;;;;;;;9.82;8.80;;;-3.20;99.90;;;;;;5011333;28;20045;-74
2021/04/16 04:51:49;;;;;;;12.15;8.32;;;-3.20;99.90;;;;;;5012301;28;20053;-75
2021/04/16 04:54:18;;;;;;;11.00;8.10;;;-3.20;99.90;;;;;;5012547;28;20061;-81
2021/04/16 04:56:46;;;;;;;10.20;8.05;;;-3.10;99.90;;;;;;5007563;28;20046;-75
2021/04/16 04:59:13;;;;;;;10.30;7.97;;;-2.90;99.90;;;;;;4992277;28;20057;-76
2021/04/16 05:01:40;;;;;;;11.05;8.43;;;-2.80;99.90;;;;;;4992252;28;20057;-75
2021/04/16 05:04:08;;;;;;;10.40;8.70;;;-2.70;99.90;;;;;;4975139;28;20057;-76
2021/04/16 05:06:35;;;;;;;10.70;8.48;;;-2.60;99.90;;;;;;4992184;28;20077;-76
2021/04/16 05:09:02;;;;;;;12.73;8.85;;;-2.50;99.90;;;;;;4992710;28;20049;-75
2021/04/16 05:11:30;;;;;;;11.00;8.70;;;-2.20;99.90;;;;;;5011838;28;20045;-75
2021/04/16 05:13:57;;;;;;;10.18;9.18;;;-2.00;99.70;;;;;;5010550;28;20369;-75
2021/04/16 05:16:24;;;;;;;13.07;9.18;;;-1.80;99.40;;;;;;5011684;28;20054;-76
2021/04/16 05:18:53;;;;;;;12.88;11.43;;;-1.60;98.70;;;;;;5004876;28;20065;-76
2021/04/16 05:21:20;;;;;;;15.65;9.85;;;-1.40;98.20;;;;;;4992510;28;20058;-77
2021/04/16 05:23:48;;;;;;;11.23;10.13;;;-1.30;97.50;;;;;;4992026;28;20055;-76
2021/04/16 05:26:16;;;;;;;10.68;9.48;;;-1.20;97.60;;;;;;4992537;28;20054;-77
2021/04/16 05:28:44;;;;;;;11.00;9.02;;;-1.10;97.20;;;;;;4991587;28;20054;-77
2021/04/16 05:31:11;;;;;;;26.23;10.80;;;-0.90;97.70;;;;;;4991464;28;20062;-77
2021/04/16 05:33:38;;;;;;;13.00;10.07;;;-0.80;96.60;;;;;;4991983;28;20046;-77
2021/04/16 05:36:06;;;;;;;11.45;9.93;;;-0.60;96.80;;;;;;5006495;28;20053;-77
2021/04/16 05:38:33;;;;;;;11.00;8.93;;;-0.30;96.60;;;;;;5011370;28;20061;-78
2021/04/16 05:41:01;;;;;;;13.07;9.23;;;-0.20;95.60;;;;;;5010543;28;20549;-78
2021/04/16 05:43:28;;;;;;;14.98;9.20;;;-0.10;95.20;;;;;;5011212;28;20052;-77
2021/04/16 05:45:57;;;;;;;12.75;8.70;;;0.30;95.10;;;;;;4971430;28;20070;-79
2021/04/16 05:48:25;;;;;;;18.15;7.50;;;0.50;94.20;;;;;;4971845;28;20058;-78
2021/04/16 05:50:52;;;;;;;30.95;9.65;;;0.80;94.10;;;;;;4971142;28;20050;-77
2021/04/16 05:53:19;;;;;;;16.83;10.35;;;1.10;93.60;;;;;;4970888;28;20046;-76
2021/04/16 05:55:47;;;;;;;15.80;9.98;;;1.50;91.60;;;;;;4987039;28;20051;-78
2021/04/16 05:58:14;;;;;;;9.60;8.50;;;1.70;91.60;;;;;;4972581;28;20070;-77
2021/04/16 06:00:41;;;;;;;13.02;9.52;;;1.90;91.30;;;;;;4971344;28;20507;-77
2021/04/16 06:03:10;;;;;;;12.10;8.73;;;1.80;91.10;;;;;;4971560;28;20043;-78
2021/04/16 06:05:37;;;;;;;12.77;10.13;;;1.80;91.20;;;;;;4972469;28;20054;-78
2021/04/16 06:08:05;;;;;;;11.30;9.02;;;2.10;90.70;;;;;;4971863;28;20051;-78
2021/04/16 06:10:33;;;;;;;18.00;8.85;;;2.30;90.50;;;;;;4974667;28;20497;-78
2021/04/16 06:13:00;;;;;;;10.82;8.88;;;2.40;90.40;;;;;;4953448;28;20058;-78
2021/04/16 06:15:29;;;;;;;9.65;8.13;;;2.80;90.10;;;;;;4969203;28;20035;-79
2021/04/16 06:17:57;;;;;;;8.73;7.82;;;2.70;90.40;;;;;;4964007;28;20050;-78
2021/04/16 06:20:26;;;;;;;7.38;6.65;;;2.90;89.60;;;;;;4970088;28;20035;-77
2021/04/16 06:22:55;;;;;;;8.32;7.38;;;3.20;88.90;;;;;;4970472;28;20045;-77
2021/04/16 06:25:26;;;;;;;10.80;8.25;;;3.80;85.00;;;;;;4962096;28;20043;-75
2021/04/16 06:27:55;;;;;;;10.90;8.60;;;3.60;86.10;;;;;;4960679;28;20055;-75
2021/04/16 06:30:23;;;;;;;9.35;8.38;;;4.30;82.90;;;;;;4963017;28;20053;-75
2021/04/16 06:33:24;;;;;;;9.95;7.82;;;3.80;84.40;;;;;;4957206;28;20058;-75
2021/04/16 06:36:02;;;;;;;9.95;7.50;;;3.80;84.00;;;;;;4961958;28;20494;-75
2021/04/16 06:38:35;;;;;;;7.93;7.05;;;3.70;84.10;;;;;;4952537;28;20062;-74
2021/04/16 06:41:31;;;;;;;9.02;8.07;;;4.00;82.80;;;;;;4966199;28;20058;-74
2021/04/16 06:44:21;;;;;;;7.45;6.75;;;4.50;80.00;;;;;;4978893;28;20073;-74
2021/04/16 06:46:52;;;;;;;9.07;7.82;;;4.90;78.00;;;;;;5008729;28;20061;-75
2021/04/16 06:49:28;;;;;;;9.18;6.95;;;5.30;75.50;;;;;;5011344;28;20061;-75
2021/04/16 06:52:24;;;;;;;7.90;7.10;;;6.20;74.00;;;;;;4998811;28;20057;-74
2021/04/16 06:55:07;;;;;;;14.05;12.82;;;7.10;68.10;;;;;;4991835;28;20042;-74
2021/04/16 06:57:40;;;;;;;8.35;7.57;;;7.50;66.90;;;;;;5001146;28;20054;-73
2021/04/16 07:00:29;;;;;;;12.68;8.82;;;8.10;63.50;;;;;;5008131;28;20046;-73
2021/04/16 07:03:21;;;;;;;7.72;6.97;;;8.00;64.80;;;;;;5008754;28;20042;-73
2021/04/16 07:06:18;;;;;;;8.05;5.82;;;8.70;61.70;;;;;;5010820;28;20054;-75
2021/04/16 07:09:07;;;;;;;6.25;5.75;;;9.40;59.20;;;;;;5011099;28;20056;-75
2021/04/16 07:11:44;;;;;;;7.15;6.53;;;9.90;55.00;;;;;;4995671;28;20042;-75
2021/04/16 07:14:44;;;;;;;7.97;7.18;;;10.50;53.40;;;;;;4995637;28;20046;-75
2021/04/16 07:17:19;;;;;;;8.02;6.80;;;9.30;56.60;;;;;;5001885;28;20065;-75
2021/04/16 07:19:47;;;;;;;6.93;5.95;;;8.10;62.40;;;;;;5006428;28;20046;-75
2021/04/16 07:22:28;;;;;;;7.88;7.00;;;8.30;61.60;;;;;;5012944;28;20423;-75
2021/04/16 07:25:23;;;;;;;6.65;6.05;;;8.80;59.50;;;;;;5001177;28;20508;-75
2021/04/16 07:28:01;;;;;;;7.13;6.43;;;9.10;57.10;;;;;;4992410;28;20506;-75
2021/04/16 07:30:46;;;;;;;9.80;6.75;;;9.90;55.30;;;;;;5009479;28;20494;-79
2021/04/16 07:33:20;;;;;;;10.68;8.30;;;10.00;53.90;;;;;;4979212;28;20054;-75
2021/04/16 07:35:47;;;;;;;7.28;6.57;;;8.00;58.60;;;;;;5012127;28;20046;-77
2021/04/16 07:38:29;;;;;;;8.43;7.25;;;7.00;63.60;;;;;;5006353;28;20054;-75
2021/04/16 07:41:35;;;;;;;10.57;7.17;;;9.40;56.00;;;;;;5007582;28;20096;-74
2021/04/16 07:44:04;;;;;;;6.93;6.30;;;10.50;53.90;;;;;;4957927;28;20070;-75
2021/04/16 07:46:39;;;;;;;7.22;6.38;;;12.00;47.30;;;;;;4966053;28;20054;-75
2021/04/16 07:49:13;;;;;;;7.68;6.88;;;11.00;48.80;;;;;;5006062;28;20492;-75
2021/04/16 07:51:45;;;;;;;7.43;6.72;;;9.40;54.50;;;;;;4992270;28;20046;-74
2021/04/16 07:54:26;;;;;;;11.57;8.38;;;7.60;64.30;;;;;;5002166;28;20045;-75
2021/04/16 07:57:08;;;;;;;8.15;6.75;;;6.10;70.80;;;;;;5010490;28;20049;-75
2021/04/16 07:59:59;;;;;;;7.50;6.80;;;5.10;75.00;;;;;;5009591;28;20049;-75
2021/04/16 08:02:47;;;;;;;10.02;7.15;;;5.00;75.30;;;;;;4992468;28;20058;-75
2021/04/16 08:05:24;;;;;;;8.40;7.50;;;4.50;76.70;;;;;;5007404;28;20058;-75
2021/04/16 08:08:09;;;;;;;9.20;8.30;;;4.50;79.10;;;;;;5010215;28;20046;-75
2021/04/16 08:10:38;;;;;;;7.97;7.18;;;4.30;79.80;;;;;;5011475;28;20058;-75
2021/04/16 08:13:15;;;;;;;6.00;5.38;;;4.00;81.10;;;;;;5011740;28;20376;-75
2021/04/16 08:15:43;;;;;;;5.88;5.22;;;4.10;76.90;;;;;;5011757;28;20396;-75
2021/04/16 08:18:20;;;;;;;6.60;6.00;;;3.60;76.60;;;;;;5011260;28;20092;-74
2021/04/16 08:21:05;;;;;;;6.72;5.80;;;3.50;78.50;;;;;;4992922;28;20510;-75
2021/04/16 08:23:59;;;;;;;7.30;6.60;;;3.60;80.60;;;;;;4992148;28;20053;-75
2021/04/16 08:26:32;;;;;;;10.88;7.28;;;3.90;79.30;;;;;;4992205;28;20053;-74
2021/04/16 08:29:09;;;;;;;8.05;7.20;;;4.20;75.90;;;;;;4991254;28;20057;-75
2021/04/16 08:31:43;;;;;;;6.88;6.05;;;3.80;77.80;;;;;;5006137;28;20057;-75
2021/04/16 08:34:18;;;;;;;6.63;5.65;;;3.80;76.00;;;;;;5009515;28;20046;-75
2021/04/16 08:36:47;;;;;;;8.30;6.70;;;3.80;77.00;;;;;;5005465;28;20096;-75
2021/04/16 08:39:16;;;;;;;6.78;6.10;;;5.70;73.70;;;;;;5008118;28;20049;-75
2021/04/16 08:42:07;;;;;;;6.65;5.85;;;10.50;55.90;;;;;;5008316;28;20061;-74
2021/04/16 08:44:40;;;;;;;6.30;5.70;;;14.10;39.60;;;;;;5003170;28;20517;-75
2021/04/16 08:47:27;;;;;;;7.03;5.10;;;13.80;39.70;;;;;;5009050;28;20038;-75
2021/04/16 08:49:56;;;;;;;6.80;5.43;;;13.90;40.00;;;;;;5005026;28;20069;-75
2021/04/16 08:52:36;;;;;;;5.22;4.35;;;13.10;41.90;;;;;;5011139;28;20053;-75
2021/04/16 08:55:18;;;;;;;6.15;5.53;;;14.60;37.00;;;;;;5010908;28;20057;-76
2021/04/16 08:58:01;;;;;;;6.57;5.50;;;15.10;35.80;;;;;;4998222;28;20046;-74
2021/04/16 09:00:42;;;;;;;7.37;4.67;;;11.70;42.10;;;;;;5008661;28;20049;-75
2021/04/16 09:03:40;;;;;;;7.32;5.70;;;9.80;48.30;;;;;;5010105;28;20789;-74
2021/04/16 09:06:30;;;;;;;8.07;5.47;;;8.90;53.00;;;;;;5010145;28;20057;-76
2021/04/16 09:08:59;;;;;;;6.97;5.22;;;7.50;57.90;;;;;;5009175;28;20100;-76
2021/04/16 09:11:46;;;;;;;7.38;5.60;;;6.70;61.10;;;;;;4990347;28;20042;-76
2021/04/16 09:14:29;;;;;;;4.95;4.30;;;6.00;63.40;;;;;;4990930;28;20061;-76
2021/04/16 09:17:04;;;;;;;4.88;4.43;;;5.20;68.30;;;;;;5001816;28;20050;-76
2021/04/16 09:19:32;;;;;;;4.72;4.32;;;4.70;70.40;;;;;;5008161;28;20050;-76
2021/04/16 09:22:05;;;;;;;5.38;4.88;;;4.60;73.00;;;;;;5002390;28;20057;-76
2021/04/16 09:24:42;;;;;;;6.95;4.90;;;4.60;70.40;;;;;;5009557;28;20391;-76
2021/04/16 09:27:27;;;;;;;5.40;4.90;;;4.60;72.50;;;;;;5006837;28;20049;-76
2021/04/16 09:30:06;;;;;;;5.55;5.07;;;4.40;73.50;;;;;;5009485;28;20518;-76
2021/04/16 09:32:33;;;;;;;6.93;6.22;;;4.30;74.20;;;;;;5006332;28;20053;-76
2021/04/16 09:35:18;;;;;;;4.72;3.58;;;4.50;75.00;;;;;;5004667;28;20041;-76
2021/04/16 09:37:50;;;;;;;6.53;5.90;;;4.70;71.50;;;;;;5010603;28;20046;-76
2021/04/16 09:40:23;;;;;;;6.53;5.93;;;4.90;71.80;;;;;;5009711;28;20042;-76
2021/04/16 09:42:50;;;;;;;6.50;5.82;;;5.10;69.70;;;;;;5010069;28;20042;-76
2021/04/16 09:45:32;;;;;;;4.55;3.90;;;5.20;69.90;;;;;;5010029;28;20062;-76
2021/04/16 09:48:25;;;;;;;5.53;4.70;;;5.60;71.70;;;;;;5003181;28;20049;-76
2021/04/16 09:50:58;;;;;;;5.50;5.00;;;6.40;64.40;;;;;;4981287;28;20415;-77
2021/04/16 09:53:33;;;;;;;6.13;4.72;;;6.60;63.40;;;;;;5004743;28;20510;-77
2021/04/16 09:56:02;;;;;;;9.43;5.45;;;6.60;61.80;;;;;;5009913;28;20045;-76
2021/04/16 09:58:30;;;;;;;9.88;6.28;;;6.40;63.90;;;;;;5010091;28;20100;-76
2021/04/16 10:00:58;;;;;;;7.85;6.28;;;6.10;64.80;;;;;;5010249;28;20048;-76
2021/04/16 10:03:29;;;;;;;7.43;4.72;;;5.60;65.00;;;;;;5009087;28;20053;-77
2021/04/16 10:05:58;;;;;;;;;;;5.50;72.00;;;;;;5010953;28;20062;-77
2021/04/16 10:08:25;;;;;;;5.22;4.68;;;5.40;65.60;;;;;;5009611;28;19937;-77
2021/04/16 10:10:53;;;;;;;7.72;5.32;;;5.70;69.90;;;;;;5008552;28;20125;-77
2021/04/16 10:13:25;;;;;;;4.32;4.00;;;5.80;65.80;;;;;;5009876;28;20065;-76
2021/04/16 10:15:55;;;;;;;7.22;6.25;;;5.70;69.30;;;;;;5009577;28;20046;-78
2021/04/16 10:18:36;;;;;;;8.13;5.63;;;5.60;64.70;;;;;;5010039;28;20060;-78
2021/04/16 10:21:08;;;;;;;;;;;5.30;64.40;;;;;;4988781;28;20759;-77
2021/04/16 10:23:42;;;;;;;5.15;4.65;;;5.00;66.00;;;;;;4996493;28;19925;-78
2021/04/16 12:39:25;;;;;;;5.13;3.33;;;6.80;64.70;;;;;;4994398;28;20433;-83
2021/04/16 12:41:57;;;;;;;5.45;4.53;;;6.50;59.50;;;;;;5012614;28;20424;-82
2021/04/16 12:44:40;;;;;;;5.30;4.60;;;6.50;61.40;;;;;;5011079;28;20652;-84
2021/04/16 12:47:17;;;;;;;3.90;3.60;;;6.60;61.80;;;;;;5011346;28;20038;-84
2021/04/16 12:49:45;;;;;;;6.05;4.22;;;7.10;59.30;;;;;;5011645;28;20053;-83
2021/04/16 12:52:15;;;;;;;4.85;3.85;;;7.10;61.90;;;;;;5010940;28;20038;-82
2021/04/16 12:54:44;;;;;;;4.50;4.10;;;7.10;63.50;;;;;;5012145;28;20056;-82
2021/04/16 12:57:18;;;;;;;4.32;3.92;;;7.00;57.20;;;;;;5004607;28;20173;-81
2021/04/16 12:59:47;;;;;;;4.63;4.00;;;6.60;61.50;;;;;;4992193;28;20404;-82
2021/04/16 13:02:29;;;;;;;6.35;3.97;;;6.60;59.20;;;;;;5007372;28;20046;-83
2021/04/16 13:05:00;;;;;;;4.65;4.25;;;6.30;64.60;;;;;;4992752;28;20491;-83
2021/04/16 13:07:27;;;;;;;4.80;4.37;;;6.40;61.90;;;;;;4992537;28;20050;-83
2021/04/16 13:09:55;;;;;;;3.08;2.58;;;6.40;62.70;;;;;;5010429;28;20053;-82
2021/04/16 13:12:23;;;;;;;5.63;4.60;;;6.40;61.00;;;;;;5011948;28;20065;-83
2021/04/16 13:14:50;;;;;;;5.95;4.32;;;6.60;60.60;;;;;;5010639;28;20050;-84
2021/04/16 13:17:23;;;;;;;4.97;4.45;;;6.70;61.20;;;;;;4994663;28;20495;-83
2021/04/16 13:19:55;;;;;;;4.10;3.80;;;6.70;60.90;;;;;;5012058;28;20049;-82
2021/04/16 13:22:25;;;;;;;12.32;5.35;;;6.90;62.70;;;;;;5012350;28;20042;-84
2021/04/16 13:24:54;;;;;;;5.20;4.75;;;6.70;60.30;;;;;;5011819;28;20038;-84
2021/04/16 13:27:28;;;;;;;6.10;4.38;;;6.60;62.30;;;;;;5010599;28;20482;-84
2021/04/16 13:29:55;;;;;;;5.82;4.68;;;6.70;63.90;;;;;;5011692;28;20126;-84
2021/04/16 13:32:26;;;;;;;4.47;4.07;;;6.60;59.90;;;;;;4993804;28;20049;-83
2021/04/16 13:34:56;;;;;;;5.63;4.68;;;6.80;60.90;;;;;;5011022;28;20495;-77
2021/04/16 13:37:31;;;;;;;5.38;4.28;;;7.10;63.50;;;;;;5012225;28;20077;-78
2021/04/16 13:39:59;;;;;;;5.47;4.97;;;7.20;58.80;;;;;;5011233;28;20045;-78
2021/04/16 13:42:26;;;;;;;5.10;4.60;;;7.50;61.60;;;;;;5010790;28;20259;-77
2021/04/16 14:18:38;;;;;;;5.35;4.20;;;6.80;59.90;;;;;;5053977;24;20069;-88
2021/04/16 14:25:39;;;;;;;4.75;4.28;;;7.10;62.20;;;;;;5342337;24;20050;-88
2021/04/16 14:33:58;;;;;;;4.25;3.92;;;7.90;63.30;;;;;;5018298;24;20066;-90
2021/04/16 14:42:31;;;;;;;4.85;4.35;;;8.10;57.10;;;;;;4746622;29;20067;-87
2021/04/16 14:49:06;;;;;;;5.50;5.00;;;8.10;60.00;;;;;;5239797;24;20050;-84
2021/04/16 14:52:56;;;;;;;5.72;5.22;;;8.00;64.70;;;;;;4821076;29;20049;-85
2021/04/16 14:55:58;;;;;;;5.93;5.35;;;7.50;60.30;;;;;;4838356;29;20056;-85
2021/04/16 15:04:03;;;;;;;6.07;4.95;;;8.00;61.00;;;;;;4782526;30;20063;-84
2021/04/16 15:07:00;;;;;;;4.57;3.85;;;8.20;57.10;;;;;;4789193;29;20085;-81
2021/04/16 15:10:22;;;;;;;5.55;4.97;;;7.90;57.10;;;;;;4821214;29;20485;-84
2021/04/16 15:13:22;;;;;;;4.47;4.03;;;8.10;56.50;;;;;;4750701;29;20058;-85
2021/04/16 15:16:51;;;;;;;5.00;4.63;;;8.20;59.90;;;;;;4764625;30;20047;-83
2021/04/16 15:24:28;;;;;;;4.43;4.13;;;7.20;61.40;;;;;;4701770;30;20041;-84
2021/04/16 15:27:00;;;;;;;4.88;4.10;;;7.00;58.30;;;;;;4781822;29;20114;-82
2021/04/16 15:29:42;;;;;;;4.97;4.55;;;6.80;61.70;;;;;;4804101;29;20382;-85
2021/04/16 15:32:22;;;;;;;4.57;4.18;;;6.60;62.70;;;;;;4792299;29;20043;-74
2021/04/16 15:46:23;;;;;;;9.70;5.65;;;6.30;65.60;;;;;;4786299;29;20063;-73
2021/04/16 15:48:51;;;;;;;5.13;4.57;;;6.30;67.60;;;;;;4785583;30;20043;-74
2021/04/16 15:51:22;;;;;;;5.75;4.72;;;6.30;65.70;;;;;;4784014;29;20516;-73
2021/04/16 15:53:50;;;;;;;5.65;5.10;;;6.30;65.70;;;;;;4802742;29;20058;-73
2021/04/16 15:56:21;;;;;;;5.43;4.93;;;6.40;67.30;;;;;;4804407;29;20058;-73
2021/04/16 15:58:53;;;;;;;6.07;5.30;;;6.20;65.60;;;;;;4803310;29;20062;-73
2021/04/16 16:01:24;;;;;;;7.32;5.35;;;6.20;64.50;;;;;;4803133;29;20058;-73
2021/04/16 16:03:51;;;;;;;5.37;4.87;;;6.20;67.80;;;;;;4804679;29;20417;-73
2021/04/16 16:06:21;;;;;;;5.30;4.80;;;6.20;64.10;;;;;;4806392;29;21131;-74
2021/04/16 16:08:54;;;;;;;6.88;5.32;;;6.20;65.20;;;;;;4789372;29;20047;-74
2021/04/16 16:11:27;;;;;;;7.63;4.60;;;6.20;64.50;;;;;;4804139;29;20050;-73
2021/04/16 16:13:57;;;;;;;6.38;5.68;;;6.20;64.40;;;;;;4805879;29;20066;-74
2021/04/16 16:16:25;;;;;;;5.68;5.18;;;6.00;66.00;;;;;;4805449;29;20074;-73
2021/04/16 16:18:52;;;;;;;5.80;5.20;;;6.10;66.00;;;;;;4802696;29;20063;-73
2021/04/16 16:21:20;;;;;;;6.00;5.50;;;6.20;67.00;;;;;;4788102;30;20059;-74
2021/04/16 16:23:49;;;;;;;5.82;5.22;;;6.10;65.20;;;;;;4786252;30;20051;-74
2021/04/16 16:26:36;;;;;;;5.45;4.95;;;6.00;65.60;;;;;;4787330;30;20410;-73
2021/04/16 16:29:18;;;;;;;5.82;4.85;;;5.90;65.40;;;;;;4785800;30;20059;-73
2021/04/16 16:31:46;;;;;;;6.50;5.78;;;5.90;64.40;;;;;;4786484;30;20051;-73
2021/04/16 16:34:15;;;;;;;5.68;5.18;;;5.90;64.60;;;;;;4787556;30;20074;-73
2021/04/16 16:36:43;;;;;;;4.80;4.32;;;6.00;66.00;;;;;;4786198;29;20070;-73
2021/04/16 16:39:30;;;;;;;4.82;4.38;;;6.00;67.50;;;;;;4789706;29;20047;-73
2021/04/16 16:41:58;;;;;;;5.38;4.93;;;5.90;64.90;;;;;;4805339;29;20063;-74
2021/04/16 16:44:29;;;;;;;6.30;5.70;;;6.00;65.70;;;;;;4804950;29;20070;-73
2021/04/16 16:46:58;;;;;;;7.22;5.28;;;6.10;66.10;;;;;;4788195;29;20042;-74
2021/04/16 16:49:26;;;;;;;5.18;4.68;;;6.20;65.00;;;;;;4805494;29;20059;-73